createdAt,value
2023-03-24T00:01:12.456Z,100989.13
2023-03-24T00:03:40.427Z,100980.44
2023-03-24T00:06:09.587Z,100988.19
2023-03-24T00:08:38.096Z,100975.97
2023-03-24T00:11:09.688Z,100982.56
2023-03-24T00:13:38.547Z,100985.41
2023-03-24T00:16:17.335Z,100987.13
2023-03-24T00:18:50.654Z,100982.41
2023-03-24T00:21:21.938Z,100989.53
2023-03-24T00:23:51.202Z,100973.44
2023-03-24T00:26:19.356Z,100974.56
2023-03-24T00:28:53.056Z,100974.91
2023-03-24T00:31:22.649Z,100977.47
2023-03-24T00:33:54.153Z,100975.59
2023-03-24T00:36:26.156Z,100969.31
2023-03-24T00:38:56.507Z,100982.88
2023-03-24T00:41:28.462Z,100980.09
2023-03-24T00:44:00.795Z,100983.28
2023-03-24T00:46:29.602Z,100985.94
2023-03-24T00:49:06.250Z,100994.06
2023-03-24T00:51:40.587Z,100979.97
2023-03-24T00:54:12.868Z,100991.53
2023-03-24T00:56:43.976Z,100991.66
2023-03-24T00:59:14.307Z,100985.78
2023-03-24T01:01:43.714Z,100981.56
2023-03-24T01:04:12.290Z,100982.59
2023-03-24T01:06:41.563Z,100985.94
2023-03-24T01:09:10.929Z,100995.09
2023-03-24T01:11:40.455Z,100994.22
2023-03-24T01:14:09.942Z,100996.78
2023-03-24T01:16:38.110Z,100992.00
2023-03-24T01:19:07.080Z,100996.69
2023-03-24T01:21:35.743Z,101000.19
2023-03-24T01:24:05.522Z,100992.78
2023-03-24T01:26:33.504Z,100994.63
2023-03-24T01:29:01.491Z,100994.75
2023-03-24T01:31:30.209Z,101004.91
2023-03-24T01:33:58.265Z,101002.19
2023-03-24T01:36:26.262Z,100999.50
2023-03-24T01:38:54.112Z,100999.66
2023-03-24T01:41:22.027Z,100994.53
2023-03-24T01:43:49.912Z,100995.53
2023-03-24T01:46:21.616Z,101000.56
2023-03-24T01:49:11.586Z,100993.06
2023-03-24T01:51:44.053Z,100998.19
2023-03-24T01:54:14.916Z,100989.34
2023-03-24T01:56:51.395Z,100992.06
2023-03-24T01:59:22.482Z,101001.50
2023-03-24T02:02:17.978Z,101006.38
2023-03-24T02:04:54.490Z,100995.31
2023-03-24T02:07:48.072Z,100991.59
2023-03-24T02:10:18.453Z,100998.00
2023-03-24T02:12:46.914Z,101003.44
2023-03-24T02:15:17.925Z,100998.88
2023-03-24T02:17:49.053Z,100999.72
2023-03-24T02:20:19.828Z,101004.59
2023-03-24T02:23:01.494Z,101001.03
2023-03-24T02:25:51.808Z,101003.72
2023-03-24T02:28:37.523Z,101005.19
2023-03-24T02:31:24.651Z,101005.06
2023-03-24T02:33:59.008Z,101016.59
2023-03-24T02:36:33.649Z,101017.91
2023-03-24T02:39:21.583Z,101018.59
2023-03-24T02:41:58.634Z,101016.78
2023-03-24T02:44:59.304Z,101023.53
2023-03-24T02:47:37.414Z,101017.00
2023-03-24T02:50:14.273Z,101013.91
2023-03-24T02:52:49.445Z,101019.44
2023-03-24T02:55:28.507Z,101020.59
2023-03-24T02:58:03.981Z,101016.50
2023-03-24T03:00:47.863Z,101031.50
2023-03-24T03:03:44.175Z,101032.34
2023-03-24T03:06:23.572Z,101025.09
2023-03-24T03:08:52.490Z,101033.03
2023-03-24T03:11:21.303Z,101041.88
2023-03-24T03:13:55.003Z,101042.72
2023-03-24T03:16:38.743Z,101043.59
2023-03-24T03:19:14.693Z,101035.47
2023-03-24T03:21:44.492Z,101041.44
2023-03-24T03:24:27.581Z,101034.16
2023-03-24T03:27:08.541Z,101027.03
2023-03-24T03:29:39.920Z,101040.19
2023-03-24T03:32:10.234Z,101038.91
2023-03-24T03:34:46.805Z,101039.06
2023-03-24T03:37:32.305Z,101031.09
2023-03-24T03:40:13.450Z,101033.53
2023-03-24T03:42:47.460Z,101028.25
2023-03-24T03:45:18.569Z,101027.84
2023-03-24T03:47:47.777Z,101021.97
2023-03-24T03:50:16.802Z,101026.78
2023-03-24T03:52:45.133Z,101017.38
2023-03-24T03:55:13.271Z,101016.44
2023-03-24T03:57:45.378Z,101029.41
2023-03-24T04:00:31.347Z,101033.44
2023-03-24T04:03:12.368Z,101033.81
2023-03-24T04:05:54.767Z,101033.66
2023-03-24T04:08:26.293Z,101036.75
2023-03-24T04:11:06.892Z,101033.28
2023-03-24T04:14:08.114Z,101032.50
2023-03-24T04:17:00.790Z,101020.38
2023-03-24T04:19:56.199Z,101018.00
2023-03-24T04:22:47.674Z,101017.72
2023-03-24T04:25:51.210Z,101016.22
2023-03-24T04:28:27.479Z,101020.59
2023-03-24T04:31:18.794Z,101014.19
2023-03-24T04:34:05.671Z,101013.75
2023-03-24T04:36:43.590Z,101018.50
2023-03-24T04:39:37.072Z,101021.25
2023-03-24T04:42:11.422Z,101019.56
2023-03-24T04:44:42.054Z,101027.38
2023-03-24T04:48:00.001Z,101018.88
2023-03-24T04:50:43.733Z,101014.78
2023-03-24T04:53:22.466Z,101002.34
2023-03-24T04:55:51.793Z,100994.00
2023-03-24T04:58:32.873Z,101003.84
2023-03-24T05:01:04.758Z,100992.59
2023-03-24T05:03:38.596Z,101002.63
2023-03-24T05:06:09.377Z,101006.81
2023-03-24T05:08:38.912Z,101009.19
2023-03-24T05:11:08.084Z,101008.47
2023-03-24T05:13:38.535Z,101012.31
2023-03-24T05:16:07.392Z,101005.81
2023-03-24T05:18:44.252Z,101011.50
2023-03-24T05:21:15.456Z,101012.13
2023-03-24T05:23:43.732Z,101011.78
2023-03-24T05:26:13.396Z,101013.41
2023-03-24T05:29:03.037Z,100999.69
2023-03-24T05:31:31.906Z,100999.75
2023-03-24T05:34:07.727Z,100996.38
2023-03-24T05:36:47.036Z,100998.06
2023-03-24T05:39:17.919Z,100997.44
2023-03-24T05:41:53.804Z,100997.63
2023-03-24T05:44:26.951Z,100996.03
2023-03-24T05:47:05.310Z,100997.63
2023-03-24T05:49:34.153Z,101000.97
2023-03-24T05:52:03.244Z,100997.47
2023-03-24T05:54:31.504Z,101000.94
2023-03-24T05:57:14.425Z,100999.56
2023-03-24T05:59:58.583Z,100994.66
2023-03-24T06:02:54.100Z,101009.44
2023-03-24T06:05:31.780Z,101002.63
2023-03-24T06:08:02.572Z,101004.69
2023-03-24T06:10:37.281Z,101015.09
2023-03-24T06:13:10.772Z,101008.03
2023-03-24T06:15:48.916Z,101006.81
2023-03-24T06:18:37.990Z,101014.56
2023-03-24T06:21:20.197Z,101020.06
2023-03-24T06:23:56.704Z,101020.06
2023-03-24T06:26:35.518Z,101018.94
2023-03-24T06:29:07.621Z,101012.50
2023-03-24T06:31:42.227Z,101020.75
2023-03-24T06:34:10.810Z,101024.56
2023-03-24T06:36:39.042Z,101026.50
2023-03-24T06:39:08.675Z,101028.06
2023-03-24T06:41:39.088Z,101021.50
2023-03-24T06:44:10.366Z,101035.13
2023-03-24T06:46:40.976Z,101025.25
2023-03-24T06:49:11.403Z,101016.94
2023-03-24T06:51:39.692Z,101014.56
2023-03-24T06:54:09.406Z,101026.94
2023-03-24T06:56:38.515Z,101021.53
2023-03-24T06:59:09.457Z,101021.94
2023-03-24T07:01:38.999Z,101036.78
2023-03-24T07:04:37.386Z,101031.78
2023-03-24T07:07:41.423Z,101037.34
2023-03-24T07:10:24.596Z,101031.22
2023-03-24T07:12:54.236Z,101024.81
2023-03-24T07:15:23.626Z,101029.69
2023-03-24T07:17:55.546Z,101019.19
2023-03-24T07:20:46.892Z,101016.91
2023-03-24T07:23:17.799Z,101008.91
2023-03-24T07:26:00.275Z,101008.84
2023-03-24T07:28:58.530Z,101016.09
2023-03-24T07:31:54.887Z,101017.41
2023-03-24T07:34:24.038Z,101021.19
2023-03-24T07:36:55.069Z,101018.91
2023-03-24T07:39:23.141Z,101018.22
2023-03-24T07:42:13.092Z,101004.50
2023-03-24T07:45:02.289Z,101001.91
2023-03-24T07:47:31.993Z,101004.22
2023-03-24T07:50:00.817Z,100995.41
2023-03-24T07:52:30.865Z,100987.53
2023-03-24T07:54:59.906Z,100997.34
2023-03-24T07:57:51.632Z,100987.75
2023-03-24T08:00:21.776Z,100982.81
2023-03-24T08:03:15.860Z,100996.25
2023-03-24T08:05:53.658Z,100978.97
2023-03-24T08:08:47.972Z,100990.19
2023-03-24T08:11:15.963Z,100984.25
2023-03-24T08:13:48.191Z,100987.78
2023-03-24T08:16:15.918Z,100984.63
2023-03-24T08:18:45.473Z,100981.75
2023-03-24T08:21:16.035Z,100981.75
2023-03-24T08:23:45.092Z,100988.97
2023-03-24T08:26:14.444Z,100978.63
2023-03-24T08:28:49.882Z,100974.94
2023-03-24T08:31:18.286Z,100987.59
2023-03-24T08:33:47.526Z,100979.50
2023-03-24T08:36:15.864Z,100983.50
2023-03-24T08:38:43.806Z,100979.63
2023-03-24T08:41:12.327Z,100976.53
2023-03-24T08:43:40.982Z,100968.19
2023-03-24T08:46:15.880Z,100969.31
2023-03-24T08:48:44.525Z,100980.78
2023-03-24T08:51:15.166Z,100975.66
2023-03-24T08:53:46.157Z,100982.03
2023-03-24T08:56:14.616Z,100974.13
2023-03-24T08:58:43.930Z,100984.84
2023-03-24T09:01:12.948Z,100991.00
2023-03-24T09:03:48.236Z,100985.09
2023-03-24T09:06:18.265Z,100997.28
2023-03-24T09:08:46.373Z,100991.88
2023-03-24T09:11:21.313Z,101004.00
2023-03-24T09:13:51.426Z,100998.38
2023-03-24T09:16:24.648Z,100982.94
2023-03-24T09:19:06.059Z,100975.16
2023-03-24T09:21:37.841Z,100974.94
2023-03-24T09:24:12.202Z,100975.41
2023-03-24T09:26:44.039Z,100973.28
2023-03-24T09:29:14.553Z,100975.50
2023-03-24T09:31:49.014Z,100972.34
2023-03-24T09:34:17.716Z,100964.59
2023-03-24T09:36:47.655Z,100954.09
2023-03-24T09:39:20.206Z,100951.59
2023-03-24T09:42:00.175Z,100959.75
2023-03-24T09:44:46.131Z,100946.53
2023-03-24T09:47:27.445Z,100953.38
2023-03-24T09:50:12.357Z,100935.50
2023-03-24T09:52:44.424Z,100948.56
2023-03-24T09:55:22.361Z,100941.19
2023-03-24T09:57:53.394Z,100947.84
2023-03-24T10:00:28.990Z,100948.28
2023-03-24T10:03:00.671Z,100952.09
2023-03-24T10:05:47.796Z,100942.91
2023-03-24T10:08:53.509Z,100938.06
2023-03-24T10:11:38.930Z,100950.06
2023-03-24T10:18:01.446Z,100946.59
2023-03-24T10:20:46.950Z,100936.75
2023-03-24T10:24:01.317Z,100928.97
2023-03-24T10:26:50.554Z,100931.88
2023-03-24T10:30:15.188Z,100917.63
2023-03-24T10:32:44.233Z,100915.56
2023-03-24T10:35:20.233Z,100908.56
2023-03-24T10:37:58.007Z,100902.09
2023-03-24T10:40:32.985Z,100905.97
2023-03-24T10:43:07.010Z,100915.16
2023-03-24T10:45:39.535Z,100905.03
2023-03-24T10:48:10.703Z,100893.75
2023-03-24T10:50:44.544Z,100907.81
2023-03-24T10:53:22.858Z,100903.31
2023-03-24T10:55:56.381Z,100891.50
2023-03-24T10:58:37.977Z,100898.72
2023-03-24T11:01:22.711Z,100889.47
2023-03-24T11:04:04.054Z,100891.81
2023-03-24T11:07:16.502Z,100901.22
2023-03-24T11:10:12.533Z,100883.63
2023-03-24T11:12:54.626Z,100887.53
2023-03-24T11:15:24.230Z,100887.19
2023-03-24T11:17:57.101Z,100874.06
2023-03-24T11:20:36.620Z,100885.25
2023-03-24T11:23:32.275Z,100882.31
2023-03-24T11:26:09.648Z,100871.97
2023-03-24T11:28:44.505Z,100859.78
2023-03-24T11:31:19.469Z,100865.94
2023-03-24T11:34:07.556Z,100861.81
2023-03-24T11:36:47.865Z,100869.47
2023-03-24T11:39:20.004Z,100862.66
2023-03-24T11:42:12.628Z,100866.38
2023-03-24T11:44:50.021Z,100854.56
2023-03-24T11:47:38.967Z,100858.47
2023-03-24T11:50:10.214Z,100857.13
2023-03-24T11:52:46.375Z,100845.22
2023-03-24T11:55:44.851Z,100854.91
2023-03-24T11:58:21.993Z,100838.91
2023-03-24T12:04:19.445Z,100838.72
2023-03-24T12:07:20.556Z,100832.59
2023-03-24T12:10:19.818Z,100831.44
2023-03-24T12:12:52.968Z,100833.59
2023-03-24T12:15:52.055Z,100837.00
2023-03-24T12:18:41.929Z,100828.53
2023-03-24T12:21:34.743Z,100829.50
2023-03-24T12:24:21.123Z,100831.03
2023-03-24T12:26:59.594Z,100830.78
2023-03-24T12:29:38.985Z,100823.06
2023-03-24T12:32:40.283Z,100831.50
2023-03-24T12:35:38.969Z,100826.63
2023-03-24T12:38:18.540Z,100820.88
2023-03-24T12:40:55.796Z,100822.25
2023-03-24T12:43:55.914Z,100810.13
2023-03-24T12:46:46.732Z,100814.19
2023-03-24T12:49:54.627Z,100815.13
2023-03-24T12:52:41.138Z,100809.84
2023-03-24T12:55:14.920Z,100806.56
2023-03-24T12:57:50.256Z,100805.75
2023-03-24T13:00:26.164Z,100809.03
2023-03-24T13:03:24.084Z,100789.44
2023-03-24T13:06:07.307Z,100806.81
2023-03-24T13:08:40.188Z,100813.09
2023-03-24T13:11:13.159Z,100804.84
2023-03-24T13:13:47.578Z,100806.28
2023-03-24T13:16:24.935Z,100800.22
2023-03-24T13:18:57.745Z,100799.13
2023-03-24T13:21:28.160Z,100794.72
2023-03-24T13:23:59.122Z,100792.59
2023-03-24T13:26:33.944Z,100790.31
2023-03-24T13:29:24.103Z,100796.25
2023-03-24T13:32:05.670Z,100799.91
2023-03-24T13:34:35.987Z,100785.25
2023-03-24T13:37:07.538Z,100790.69
2023-03-24T13:39:38.083Z,100783.47
2023-03-24T13:42:21.253Z,100788.41
2023-03-24T13:44:49.079Z,100776.84
2023-03-24T13:47:22.934Z,100778.19
2023-03-24T13:50:06.849Z,100778.13
2023-03-24T13:52:35.792Z,100774.84
2023-03-24T13:55:14.632Z,100773.78
2023-03-24T13:57:43.289Z,100773.00
2023-03-24T14:00:22.669Z,100764.09
2023-03-24T14:02:52.895Z,100757.28
2023-03-24T14:05:26.523Z,100758.34
2023-03-24T14:08:06.400Z,100745.28
2023-03-24T14:10:43.709Z,100749.28
2023-03-24T14:13:14.352Z,100747.91
2023-03-24T14:15:53.406Z,100744.84
2023-03-24T14:18:24.761Z,100742.31
2023-03-24T14:21:13.729Z,100744.63
2023-03-24T14:23:49.490Z,100745.25
2023-03-24T14:26:20.179Z,100750.78
2023-03-24T14:29:38.076Z,100750.69
2023-03-24T14:34:37.850Z,100737.78
2023-03-24T14:37:08.038Z,100750.03
2023-03-24T14:39:46.504Z,100746.56
2023-03-24T14:42:32.527Z,100751.38
2023-03-24T14:45:05.061Z,100742.19
2023-03-24T14:47:34.632Z,100744.06
2023-03-24T14:50:30.380Z,100746.91
2023-03-24T14:52:59.231Z,100745.09
2023-03-24T14:55:27.228Z,100744.66
2023-03-24T14:57:56.697Z,100753.88
2023-03-24T15:00:51.729Z,100746.00
2023-03-24T15:04:01.576Z,100741.97
2023-03-24T15:06:44.201Z,100745.88
2023-03-24T15:09:12.116Z,100748.31
2023-03-24T15:11:40.696Z,100756.44
2023-03-24T15:14:21.742Z,100748.38
